PWSweather.com
Personal Weather Stations
Station Observations

ChardChardGB

Lat: 50.877408, Lon: -2.94964741

Elevation: 341

Station Type: WS3083

http://www.merriott-astro.co.uk/weather/index.htm

High Low Average
Temperature 55.4°F13.0°C 37.9°F3.3°C 45.9°F7.7°C
Dew Point 36.3°F2.4°C 27.6°F-2.4°C 31.2°F-0.4°C
Winds 11.7 mph 18.8 kmh 1.8 mph 2.9 kmh 6.0 mph SSW9.7 kmh SSW
Wind Gusts 16.8 mph27.0 kmh 3.1 mph5.0 kmh 9.0 mph14.5 kmh
Humidity 72% 35% 58%
Pressure 30.33 in1027.1 mb 29.99 in1015.6 mb -
Precipitation 0.00 in0.0 mm - -
Hour Temp Dew Point Humidity Winds Wind Gusts Pressure Precip Precip Rate Daily Precip Total
12:00 AM 41.9°F5.5°C 31.4°F-0.3°C 66% 10.4 mph WNW16.7 kmh WNW 13.0 mph20.9 kmh 29.99 in1015.6 mb 0.00 in0.0 mm 0.00 in0.0 mm 0.00 in0.0 mm
12:10 AM 41.7°F5.4°C 31.2°F-0.4°C 66% 10.5 mph WNW16.9 kmh WNW 15.9 mph25.6 kmh 30.01 in1016.3 mb 0.00 in0.0 mm 0.00 in0.0 mm 0.00 in0.0 mm
12:20 AM 41.5°F5.3°C 31.0°F-0.6°C 66% 10.6 mph NW17.1 kmh NW 14.5 mph23.3 kmh 30.01 in1016.3 mb 0.00 in0.0 mm 0.00 in0.0 mm 0.00 in0.0 mm
12:30 AM 41.4°F5.2°C 30.9°F-0.6°C 66% 9.7 mph NW15.6 kmh NW 15.9 mph25.6 kmh 30.01 in1016.3 mb 0.00 in0.0 mm 0.00 in0.0 mm 0.00 in0.0 mm
12:40 AM 41.2°F5.1°C 30.7°F-0.7°C 66% 10.7 mph NW17.2 kmh NW 15.2 mph24.5 kmh 30.02 in1016.6 mb 0.00 in0.0 mm 0.00 in0.0 mm 0.00 in0.0 mm
12:50 AM 40.8°F4.9°C 30.4°F-0.9°C 66% 7.4 mph NW11.9 kmh NW 11.4 mph18.3 kmh 30.02 in1016.6 mb 0.00 in0.0 mm 0.00 in0.0 mm 0.00 in0.0 mm
01:00 AM 41.0°F5.0°C 30.5°F-0.8°C 66% 9.5 mph WNW15.3 kmh WNW 15.2 mph24.5 kmh 30.03 in1016.9 mb 0.00 in0.0 mm 0.00 in0.0 mm 0.00 in0.0 mm
01:10 AM 40.8°F4.9°C 30.7°F-0.7°C 67% 10.2 mph WNW16.4 kmh WNW 13.0 mph20.9 kmh 30.04 in1017.3 mb 0.00 in0.0 mm 0.00 in0.0 mm 0.00 in0.0 mm
01:20 AM 41.2°F5.1°C 31.1°F-0.5°C 67% 11.4 mph NW18.3 kmh NW 16.8 mph27.0 kmh 30.04 in1017.3 mb 0.00 in0.0 mm 0.00 in0.0 mm 0.00 in0.0 mm
01:30 AM 41.2°F5.1°C 31.1°F-0.5°C 67% 11.0 mph NW17.7 kmh NW 15.9 mph25.6 kmh 30.06 in1017.9 mb 0.00 in0.0 mm 0.00 in0.0 mm 0.00 in0.0 mm
01:40 AM 41.2°F5.1°C 31.4°F-0.3°C 68% 11.7 mph NW18.8 kmh NW 15.2 mph24.5 kmh 30.05 in1017.6 mb 0.00 in0.0 mm 0.00 in0.0 mm 0.00 in0.0 mm
01:50 AM 41.2°F5.1°C 31.4°F-0.3°C 68% 11.1 mph NW17.9 kmh NW 13.6 mph21.9 kmh 30.06 in1017.9 mb 0.00 in0.0 mm 0.00 in0.0 mm 0.00 in0.0 mm
02:00 AM 41.2°F5.1°C 31.4°F-0.3°C 68% 11.2 mph NW18.0 kmh NW 15.9 mph25.6 kmh 30.07 in1018.3 mb 0.00 in0.0 mm 0.00 in0.0 mm 0.00 in0.0 mm
02:10 AM 41.0°F5.0°C 31.3°F-0.4°C 68% 10.4 mph NW16.7 kmh NW 14.5 mph23.3 kmh 30.07 in1018.3 mb 0.00 in0.0 mm 0.00 in0.0 mm 0.00 in0.0 mm
02:20 AM 41.0°F5.0°C 31.3°F-0.4°C 68% 10.5 mph WNW16.9 kmh WNW 15.9 mph25.6 kmh 30.08 in1018.6 mb 0.00 in0.0 mm 0.00 in0.0 mm 0.00 in0.0 mm
02:30 AM 40.8°F4.9°C 31.1°F-0.5°C 68% 8.3 mph NNW13.4 kmh NNW 11.4 mph18.3 kmh 30.09 in1019.0 mb 0.00 in0.0 mm 0.00 in0.0 mm 0.00 in0.0 mm
02:40 AM 40.5°F4.7°C 30.7°F-0.7°C 68% 6.9 mph WNW11.1 kmh WNW 11.4 mph18.3 kmh 30.09 in1019.0 mb 0.00 in0.0 mm 0.00 in0.0 mm 0.00 in0.0 mm
02:50 AM 40.3°F4.6°C 30.6°F-0.8°C 68% 6.3 mph NNW10.1 kmh NNW 13.0 mph20.9 kmh 30.11 in1019.6 mb 0.00 in0.0 mm 0.00 in0.0 mm 0.00 in0.0 mm
03:00 AM 40.1°F4.5°C 30.8°F-0.7°C 69% 5.4 mph NW8.7 kmh NW 6.9 mph11.1 kmh 30.10 in1019.3 mb 0.00 in0.0 mm 0.00 in0.0 mm 0.00 in0.0 mm
03:10 AM 40.3°F4.6°C 30.9°F-0.6°C 69% 8.9 mph NW14.3 kmh NW 13.0 mph20.9 kmh 30.11 in1019.6 mb 0.00 in0.0 mm 0.00 in0.0 mm 0.00 in0.0 mm
03:20 AM 40.1°F4.5°C 30.8°F-0.7°C 69% 6.8 mph NW10.9 kmh NW 9.8 mph15.8 kmh 30.12 in1020.0 mb 0.00 in0.0 mm 0.00 in0.0 mm 0.00 in0.0 mm
03:30 AM 39.9°F4.4°C 30.6°F-0.8°C 69% 6.8 mph NW10.9 kmh NW 9.8 mph15.8 kmh 30.12 in1020.0 mb 0.00 in0.0 mm 0.00 in0.0 mm 0.00 in0.0 mm
03:40 AM 39.7°F4.3°C 30.4°F-0.9°C 69% 7.9 mph NW12.7 kmh NW 9.2 mph14.8 kmh 30.12 in1020.0 mb 0.00 in0.0 mm 0.00 in0.0 mm 0.00 in0.0 mm
03:50 AM 39.7°F4.3°C 30.4°F-0.9°C 69% 8.7 mph WNW14.0 kmh WNW 12.1 mph19.5 kmh 30.13 in1020.3 mb 0.00 in0.0 mm 0.00 in0.0 mm 0.00 in0.0 mm
04:00 AM 39.4°F4.1°C 29.7°F-1.3°C 68% 5.7 mph NW9.2 kmh NW 9.8 mph15.8 kmh 30.14 in1020.7 mb 0.00 in0.0 mm 0.00 in0.0 mm 0.00 in0.0 mm
04:10 AM 38.8°F3.8°C 29.6°F-1.3°C 69% 3.5 mph N5.6 kmh N 6.0 mph9.7 kmh 30.14 in1020.7 mb 0.00 in0.0 mm 0.00 in0.0 mm 0.00 in0.0 mm
04:20 AM 38.8°F3.8°C 29.9°F-1.2°C 70% 4.2 mph N6.8 kmh N 6.0 mph9.7 kmh 30.15 in1021.0 mb 0.00 in0.0 mm 0.00 in0.0 mm 0.00 in0.0 mm
04:30 AM 38.7°F3.7°C 29.7°F-1.3°C 70% 3.4 mph NNW5.5 kmh NNW 4.5 mph7.2 kmh 30.15 in1021.0 mb 0.00 in0.0 mm 0.00 in0.0 mm 0.00 in0.0 mm
04:40 AM 38.3°F3.5°C 29.4°F-1.4°C 70% 2.8 mph NW4.5 kmh NW 5.4 mph8.7 kmh 30.15 in1021.0 mb 0.00 in0.0 mm 0.00 in0.0 mm 0.00 in0.0 mm
04:50 AM 38.3°F3.5°C 29.4°F-1.4°C 70% 4.1 mph NW6.6 kmh NW 6.0 mph9.7 kmh 30.15 in1021.0 mb 0.00 in0.0 mm 0.00 in0.0 mm 0.00 in0.0 mm
05:00 AM 38.5°F3.6°C 29.6°F-1.3°C 70% 4.6 mph W7.4 kmh W 8.3 mph13.4 kmh 30.16 in1021.3 mb 0.00 in0.0 mm 0.00 in0.0 mm 0.00 in0.0 mm
05:10 AM 38.3°F3.5°C 29.4°F-1.4°C 70% 3.8 mph NW6.1 kmh NW 6.0 mph9.7 kmh 30.17 in1021.7 mb 0.00 in0.0 mm 0.00 in0.0 mm 0.00 in0.0 mm
05:20 AM 38.3°F3.5°C 29.4°F-1.4°C 70% 4.9 mph NW7.9 kmh NW 7.6 mph12.2 kmh 30.18 in1022.0 mb 0.00 in0.0 mm 0.00 in0.0 mm 0.00 in0.0 mm
05:30 AM 38.5°F3.6°C 29.6°F-1.3°C 70% 5.2 mph NW8.4 kmh NW 8.3 mph13.4 kmh 30.19 in1022.4 mb 0.00 in0.0 mm 0.00 in0.0 mm 0.00 in0.0 mm
05:40 AM 38.3°F3.5°C 29.4°F-1.4°C 70% 4.1 mph NW6.6 kmh NW 5.4 mph8.7 kmh 30.20 in1022.7 mb 0.00 in0.0 mm 0.00 in0.0 mm 0.00 in0.0 mm
05:50 AM 38.1°F3.4°C 29.2°F-1.6°C 70% 4.1 mph NNW6.6 kmh NNW 6.9 mph11.1 kmh 30.21 in1023.0 mb 0.00 in0.0 mm 0.00 in0.0 mm 0.00 in0.0 mm
06:00 AM 37.9°F3.3°C 29.0°F-1.7°C 70% 3.3 mph NW5.3 kmh NW 4.5 mph7.2 kmh 30.21 in1023.0 mb 0.00 in0.0 mm 0.00 in0.0 mm 0.00 in0.0 mm
06:10 AM 38.3°F3.5°C 29.4°F-1.4°C 70% 5.5 mph NW8.9 kmh NW 7.6 mph12.2 kmh 30.22 in1023.4 mb 0.00 in0.0 mm 0.00 in0.0 mm 0.00 in0.0 mm
06:20 AM 39.0°F3.9°C 30.1°F-1.1°C 70% 4.8 mph NNW7.7 kmh NNW 6.0 mph9.7 kmh 30.22 in1023.4 mb 0.00 in0.0 mm 0.00 in0.0 mm 0.00 in0.0 mm
06:30 AM 40.8°F4.9°C 31.8°F-0.1°C 70% 5.0 mph NW8.0 kmh NW 6.9 mph11.1 kmh 30.23 in1023.7 mb 0.00 in0.0 mm 0.00 in0.0 mm 0.00 in0.0 mm
06:40 AM 42.3°F5.7°C 32.1°F0.1°C 67% 3.7 mph NW6.0 kmh NW 5.4 mph8.7 kmh 30.24 in1024.0 mb 0.00 in0.0 mm 0.00 in0.0 mm 0.00 in0.0 mm
06:50 AM 43.2°F6.2°C 31.8°F-0.1°C 64% 4.1 mph NNW6.6 kmh NNW 6.0 mph9.7 kmh 30.24 in1024.0 mb 0.00 in0.0 mm 0.00 in0.0 mm 0.00 in0.0 mm
07:00 AM 43.9°F6.6°C 32.1°F0.1°C 63% 4.1 mph NW6.6 kmh NW 6.0 mph9.7 kmh 30.25 in1024.4 mb 0.00 in0.0 mm 0.00 in0.0 mm 0.00 in0.0 mm
07:10 AM 45.3°F7.4°C 33.1°F0.6°C 62% 3.7 mph NW6.0 kmh NW 5.4 mph8.7 kmh 30.25 in1024.4 mb 0.00 in0.0 mm 0.00 in0.0 mm 0.00 in0.0 mm
07:20 AM 47.1°F8.4°C 32.2°F0.1°C 56% 2.1 mph NW3.4 kmh NW 3.1 mph5.0 kmh 30.26 in1024.7 mb 0.00 in0.0 mm 0.00 in0.0 mm 0.00 in0.0 mm
07:30 AM 49.1°F9.5°C 32.2°F0.1°C 52% 1.8 mph ENE2.9 kmh ENE 5.4 mph8.7 kmh 30.27 in1025.1 mb 0.00 in0.0 mm 0.00 in0.0 mm 0.00 in0.0 mm
07:40 AM 47.3°F8.5°C 29.6°F-1.3°C 50% 4.6 mph N7.4 kmh N 6.0 mph9.7 kmh 30.27 in1025.1 mb 0.00 in0.0 mm 0.00 in0.0 mm 0.00 in0.0 mm
07:50 AM 47.8°F8.8°C 30.1°F-1.1°C 50% 4.1 mph NW6.6 kmh NW 6.9 mph11.1 kmh 30.27 in1025.1 mb 0.00 in0.0 mm 0.00 in0.0 mm 0.00 in0.0 mm
08:00 AM 47.8°F8.8°C 29.6°F-1.3°C 49% 5.0 mph NNE8.0 kmh NNE 7.6 mph12.2 kmh 30.27 in1025.1 mb 0.00 in0.0 mm 0.00 in0.0 mm 0.00 in0.0 mm
08:10 AM 49.3°F9.6°C 29.9°F-1.2°C 47% 3.0 mph ENE4.8 kmh ENE 6.0 mph9.7 kmh 30.28 in1025.4 mb 0.00 in0.0 mm 0.00 in0.0 mm 0.00 in0.0 mm
08:20 AM 49.6°F9.8°C 29.7°F-1.3°C 46% 3.3 mph ENE5.3 kmh ENE 4.5 mph7.2 kmh 30.29 in1025.7 mb 0.00 in0.0 mm 0.00 in0.0 mm 0.00 in0.0 mm
08:30 AM 50.0°F10.0°C 29.0°F-1.7°C 44% 3.3 mph NE5.3 kmh NE 4.5 mph7.2 kmh 30.30 in1026.1 mb 0.00 in0.0 mm 0.00 in0.0 mm 0.00 in0.0 mm
08:40 AM 49.8°F9.9°C 29.3°F-1.5°C 45% 4.3 mph NNE6.9 kmh NNE 6.9 mph11.1 kmh 30.30 in1026.1 mb 0.00 in0.0 mm 0.00 in0.0 mm 0.00 in0.0 mm
08:50 AM 51.3°F10.7°C 29.0°F-1.7°C 42% 2.9 mph ENE4.7 kmh ENE 3.8 mph6.1 kmh 30.30 in1026.1 mb 0.00 in0.0 mm 0.00 in0.0 mm 0.00 in0.0 mm
09:00 AM 52.7°F11.5°C 30.8°F-0.7°C 43% 1.8 mph ENE2.9 kmh ENE 4.5 mph7.2 kmh 30.30 in1026.1 mb 0.00 in0.0 mm 0.00 in0.0 mm 0.00 in0.0 mm
09:10 AM 52.5°F11.4°C 30.1°F-1.1°C 42% 2.8 mph NE4.5 kmh NE 5.4 mph8.7 kmh 30.30 in1026.1 mb 0.00 in0.0 mm 0.00 in0.0 mm 0.00 in0.0 mm
09:20 AM 52.2°F11.2°C 29.8°F-1.2°C 42% 3.8 mph NW6.1 kmh NW 5.4 mph8.7 kmh 30.31 in1026.4 mb 0.00 in0.0 mm 0.00 in0.0 mm 0.00 in0.0 mm
09:30 AM 52.2°F11.2°C 29.2°F-1.6°C 41% 3.6 mph NNE5.8 kmh NNE 6.9 mph11.1 kmh 30.31 in1026.4 mb 0.00 in0.0 mm 0.00 in0.0 mm 0.00 in0.0 mm
09:40 AM 52.3°F11.3°C 28.7°F-1.8°C 40% 3.1 mph N5.0 kmh N 4.5 mph7.2 kmh 30.32 in1026.8 mb 0.00 in0.0 mm 0.00 in0.0 mm 0.00 in0.0 mm
09:50 AM 53.1°F11.7°C 31.2°F-0.4°C 43% 3.1 mph NW5.0 kmh NW 4.5 mph7.2 kmh 30.32 in1026.8 mb 0.00 in0.0 mm 0.00 in0.0 mm 0.00 in0.0 mm
10:00 AM 53.8°F12.1°C 30.0°F-1.1°C 40% 2.9 mph E4.7 kmh E 4.5 mph7.2 kmh 30.31 in1026.4 mb 0.00 in0.0 mm 0.00 in0.0 mm 0.00 in0.0 mm
10:10 AM 52.7°F11.5°C 27.8°F-2.3°C 38% 3.6 mph E5.8 kmh E 6.0 mph9.7 kmh 30.32 in1026.8 mb 0.00 in0.0 mm 0.00 in0.0 mm 0.00 in0.0 mm
10:20 AM 53.1°F11.7°C 30.0°F-1.1°C 41% 4.2 mph E6.8 kmh E 5.4 mph8.7 kmh 30.32 in1026.8 mb 0.00 in0.0 mm 0.00 in0.0 mm 0.00 in0.0 mm
10:30 AM 53.6°F12.0°C 29.9°F-1.2°C 40% 3.6 mph ENE5.8 kmh ENE 5.4 mph8.7 kmh 30.32 in1026.8 mb 0.00 in0.0 mm 0.00 in0.0 mm 0.00 in0.0 mm
10:40 AM 53.6°F12.0°C 29.9°F-1.2°C 40% 3.3 mph E5.3 kmh E 5.4 mph8.7 kmh 30.32 in1026.8 mb 0.00 in0.0 mm 0.00 in0.0 mm 0.00 in0.0 mm
10:50 AM 54.0°F12.2°C 30.2°F-1.0°C 40% 4.4 mph S7.1 kmh S 8.3 mph13.4 kmh 30.32 in1026.8 mb 0.00 in0.0 mm 0.00 in0.0 mm 0.00 in0.0 mm
11:00 AM 54.7°F12.6°C 28.3°F-2.1°C 36% 3.2 mph E5.1 kmh E 5.4 mph8.7 kmh 30.32 in1026.8 mb 0.00 in0.0 mm 0.00 in0.0 mm 0.00 in0.0 mm
11:10 AM 54.3°F12.4°C 29.3°F-1.5°C 38% 4.1 mph SSW6.6 kmh SSW 6.0 mph9.7 kmh 30.32 in1026.8 mb 0.00 in0.0 mm 0.00 in0.0 mm 0.00 in0.0 mm
11:20 AM 53.6°F12.0°C 29.9°F-1.2°C 40% 5.1 mph S8.2 kmh S 8.3 mph13.4 kmh 30.32 in1026.8 mb 0.00 in0.0 mm 0.00 in0.0 mm 0.00 in0.0 mm
11:30 AM 53.6°F12.0°C 29.9°F-1.2°C 40% 4.3 mph S6.9 kmh S 9.8 mph15.8 kmh 30.32 in1026.8 mb 0.00 in0.0 mm 0.00 in0.0 mm 0.00 in0.0 mm
11:40 AM 53.8°F12.1°C 31.2°F-0.4°C 42% 4.6 mph SSW7.4 kmh SSW 6.9 mph11.1 kmh 30.32 in1026.8 mb 0.00 in0.0 mm 0.00 in0.0 mm 0.00 in0.0 mm
11:50 AM 55.4°F13.0°C 28.2°F-2.1°C 35% 5.3 mph SSW8.5 kmh SSW 9.2 mph14.8 kmh 30.33 in1027.1 mb 0.00 in0.0 mm 0.00 in0.0 mm 0.00 in0.0 mm
12:00 PM 52.9°F11.6°C 28.6°F-1.9°C 39% 5.6 mph SSE9.0 kmh SSE 7.6 mph12.2 kmh 30.32 in1026.8 mb 0.00 in0.0 mm 0.00 in0.0 mm 0.00 in0.0 mm
12:10 PM 52.5°F11.4°C 28.3°F-2.1°C 39% 7.0 mph S11.3 kmh S 12.1 mph19.5 kmh 30.33 in1027.1 mb 0.00 in0.0 mm 0.00 in0.0 mm 0.00 in0.0 mm
12:20 PM 52.3°F11.3°C 28.1°F-2.2°C 39% 7.2 mph SSW11.6 kmh SSW 9.2 mph14.8 kmh 30.33 in1027.1 mb 0.00 in0.0 mm 0.00 in0.0 mm 0.00 in0.0 mm
12:30 PM 51.3°F10.7°C 27.8°F-2.3°C 40% 7.7 mph SSW12.4 kmh SSW 11.4 mph18.3 kmh 30.33 in1027.1 mb 0.00 in0.0 mm 0.00 in0.0 mm 0.00 in0.0 mm
12:40 PM 51.8°F11.0°C 28.9°F-1.7°C 41% 5.7 mph SW9.2 kmh SW 13.0 mph20.9 kmh 30.33 in1027.1 mb 0.00 in0.0 mm 0.00 in0.0 mm 0.00 in0.0 mm
12:50 PM 51.8°F11.0°C 29.5°F-1.4°C 42% 6.6 mph S10.6 kmh S 14.5 mph23.3 kmh 30.33 in1027.1 mb 0.00 in0.0 mm 0.00 in0.0 mm 0.00 in0.0 mm
01:00 PM 51.8°F11.0°C 28.9°F-1.7°C 41% 6.9 mph SSW11.1 kmh SSW 10.7 mph17.2 kmh 30.33 in1027.1 mb 0.00 in0.0 mm 0.00 in0.0 mm 0.00 in0.0 mm
01:10 PM 51.6°F10.9°C 28.7°F-1.8°C 41% 7.8 mph SSE12.6 kmh SSE 10.7 mph17.2 kmh 30.32 in1026.8 mb 0.00 in0.0 mm 0.00 in0.0 mm 0.00 in0.0 mm
01:20 PM 53.2°F11.8°C 30.2°F-1.0°C 41% 5.2 mph SE8.4 kmh SE 7.6 mph12.2 kmh 30.33 in1027.1 mb 0.00 in0.0 mm 0.00 in0.0 mm 0.00 in0.0 mm
01:30 PM 52.2°F11.2°C 29.2°F-1.6°C 41% 8.3 mph SSW13.4 kmh SSW 10.7 mph17.2 kmh 30.33 in1027.1 mb 0.00 in0.0 mm 0.00 in0.0 mm 0.00 in0.0 mm
01:40 PM 53.4°F11.9°C 30.3°F-0.9°C 41% 6.9 mph SSW11.1 kmh SSW 9.2 mph14.8 kmh 30.32 in1026.8 mb 0.00 in0.0 mm 0.00 in0.0 mm 0.00 in0.0 mm
01:50 PM 53.2°F11.8°C 29.6°F-1.3°C 40% 7.6 mph SW12.2 kmh SW 11.4 mph18.3 kmh 30.32 in1026.8 mb 0.00 in0.0 mm 0.00 in0.0 mm 0.00 in0.0 mm
02:00 PM 51.3°F10.7°C 27.8°F-2.3°C 40% 9.9 mph SW15.9 kmh SW 13.0 mph20.9 kmh 30.32 in1026.8 mb 0.00 in0.0 mm 0.00 in0.0 mm 0.00 in0.0 mm
02:10 PM 51.1°F10.6°C 27.6°F-2.4°C 40% 7.7 mph SE12.4 kmh SE 14.5 mph23.3 kmh 30.31 in1026.4 mb 0.00 in0.0 mm 0.00 in0.0 mm 0.00 in0.0 mm
02:20 PM 50.5°F10.3°C 29.4°F-1.4°C 44% 7.8 mph S12.6 kmh S 10.7 mph17.2 kmh 30.32 in1026.8 mb 0.00 in0.0 mm 0.00 in0.0 mm 0.00 in0.0 mm
02:30 PM 51.4°F10.8°C 29.7°F-1.3°C 43% 5.9 mph SE9.5 kmh SE 9.2 mph14.8 kmh 30.32 in1026.8 mb 0.00 in0.0 mm 0.00 in0.0 mm 0.00 in0.0 mm
02:40 PM 51.6°F10.9°C 28.7°F-1.8°C 41% 6.0 mph SE9.7 kmh SE 7.6 mph12.2 kmh 30.32 in1026.8 mb 0.00 in0.0 mm 0.00 in0.0 mm 0.00 in0.0 mm
02:50 PM 50.4°F10.2°C 28.7°F-1.8°C 43% 8.4 mph S13.5 kmh S 11.4 mph18.3 kmh 30.32 in1026.8 mb 0.00 in0.0 mm 0.00 in0.0 mm 0.00 in0.0 mm
03:00 PM 50.0°F10.0°C 29.5°F-1.4°C 45% 7.3 mph WSW11.7 kmh WSW 11.4 mph18.3 kmh 30.32 in1026.8 mb 0.00 in0.0 mm 0.00 in0.0 mm 0.00 in0.0 mm
03:10 PM 49.1°F9.5°C 30.3°F-0.9°C 48% 7.5 mph S12.1 kmh S 9.8 mph15.8 kmh 30.31 in1026.4 mb 0.00 in0.0 mm 0.00 in0.0 mm 0.00 in0.0 mm
03:20 PM 49.1°F9.5°C 31.3°F-0.4°C 50% 7.0 mph S11.3 kmh S 10.7 mph17.2 kmh 30.32 in1026.8 mb 0.00 in0.0 mm 0.00 in0.0 mm 0.00 in0.0 mm
03:30 PM 49.1°F9.5°C 31.3°F-0.4°C 50% 7.4 mph SW11.9 kmh SW 9.8 mph15.8 kmh 30.30 in1026.1 mb 0.00 in0.0 mm 0.00 in0.0 mm 0.00 in0.0 mm
03:40 PM 48.7°F9.3°C 30.9°F-0.6°C 50% 7.7 mph S12.4 kmh S 13.0 mph20.9 kmh 30.31 in1026.4 mb 0.00 in0.0 mm 0.00 in0.0 mm 0.00 in0.0 mm
03:50 PM 49.5°F9.7°C 31.6°F-0.2°C 50% 5.8 mph S9.3 kmh S 7.6 mph12.2 kmh 30.30 in1026.1 mb 0.00 in0.0 mm 0.00 in0.0 mm 0.00 in0.0 mm
04:00 PM 48.7°F9.3°C 31.4°F-0.3°C 51% 5.5 mph SW8.9 kmh SW 8.3 mph13.4 kmh 30.30 in1026.1 mb 0.00 in0.0 mm 0.00 in0.0 mm 0.00 in0.0 mm
04:10 PM 48.0°F8.9°C 30.3°F-0.9°C 50% 7.6 mph S12.2 kmh S 10.7 mph17.2 kmh 30.30 in1026.1 mb 0.00 in0.0 mm 0.00 in0.0 mm 0.00 in0.0 mm
04:20 PM 47.7°F8.7°C 30.4°F-0.9°C 51% 7.1 mph SSW11.4 kmh SSW 12.1 mph19.5 kmh 30.30 in1026.1 mb 0.00 in0.0 mm 0.00 in0.0 mm 0.00 in0.0 mm
04:30 PM 47.3°F8.5°C 30.1°F-1.1°C 51% 8.5 mph SSE13.7 kmh SSE 14.5 mph23.3 kmh 30.30 in1026.1 mb 0.00 in0.0 mm 0.00 in0.0 mm 0.00 in0.0 mm
04:40 PM 47.1°F8.4°C 30.4°F-0.9°C 52% 9.5 mph SSE15.3 kmh SSE 15.2 mph24.5 kmh 30.30 in1026.1 mb 0.00 in0.0 mm 0.00 in0.0 mm 0.00 in0.0 mm
04:50 PM 47.3°F8.5°C 31.5°F-0.3°C 54% 8.2 mph S13.2 kmh S 15.2 mph24.5 kmh 30.30 in1026.1 mb 0.00 in0.0 mm 0.00 in0.0 mm 0.00 in0.0 mm
05:00 PM 48.0°F8.9°C 32.6°F0.3°C 55% 6.6 mph S10.6 kmh S 15.2 mph24.5 kmh 30.30 in1026.1 mb 0.00 in0.0 mm 0.00 in0.0 mm 0.00 in0.0 mm
05:10 PM 48.2°F9.0°C 31.9°F-0.1°C 53% 6.1 mph SSW9.8 kmh SSW 8.3 mph13.4 kmh 30.31 in1026.4 mb 0.00 in0.0 mm 0.00 in0.0 mm 0.00 in0.0 mm
05:20 PM 47.8°F8.8°C 32.0°F0.0°C 54% 5.2 mph SSW8.4 kmh SSW 8.3 mph13.4 kmh 30.30 in1026.1 mb 0.00 in0.0 mm 0.00 in0.0 mm 0.00 in0.0 mm
05:30 PM 47.1°F8.4°C 31.8°F-0.1°C 55% 6.0 mph SE9.7 kmh SE 11.4 mph18.3 kmh 30.30 in1026.1 mb 0.00 in0.0 mm 0.00 in0.0 mm 0.00 in0.0 mm
05:40 PM 46.9°F8.3°C 32.5°F0.3°C 57% 5.4 mph SSE8.7 kmh SSE 8.3 mph13.4 kmh 30.29 in1025.7 mb 0.00 in0.0 mm 0.00 in0.0 mm 0.00 in0.0 mm
05:50 PM 46.4°F8.0°C 32.4°F0.2°C 58% 5.1 mph S8.2 kmh S 7.6 mph12.2 kmh 30.29 in1025.7 mb 0.00 in0.0 mm 0.00 in0.0 mm 0.00 in0.0 mm
06:00 PM 45.7°F7.6°C 32.2°F0.1°C 59% 6.3 mph SE10.1 kmh SE 12.1 mph19.5 kmh 30.29 in1025.7 mb 0.00 in0.0 mm 0.00 in0.0 mm 0.00 in0.0 mm
06:10 PM 45.5°F7.5°C 32.4°F0.2°C 60% 5.6 mph SSE9.0 kmh SSE 9.8 mph15.8 kmh 30.29 in1025.7 mb 0.00 in0.0 mm 0.00 in0.0 mm 0.00 in0.0 mm
06:20 PM 45.5°F7.5°C 32.4°F0.2°C 60% 4.6 mph S7.4 kmh S 6.0 mph9.7 kmh 30.29 in1025.7 mb 0.00 in0.0 mm 0.00 in0.0 mm 0.00 in0.0 mm
06:30 PM 45.1°F7.3°C 32.9°F0.5°C 62% 3.5 mph SSE5.6 kmh SSE 5.4 mph8.7 kmh 30.29 in1025.7 mb 0.00 in0.0 mm 0.00 in0.0 mm 0.00 in0.0 mm
06:40 PM 44.8°F7.1°C 33.0°F0.6°C 63% 3.0 mph SSE4.8 kmh SSE 4.5 mph7.2 kmh 30.29 in1025.7 mb 0.00 in0.0 mm 0.00 in0.0 mm 0.00 in0.0 mm
06:50 PM 44.4°F6.9°C 32.6°F0.3°C 63% 3.7 mph SSW6.0 kmh SSW 5.4 mph8.7 kmh 30.29 in1025.7 mb 0.00 in0.0 mm 0.00 in0.0 mm 0.00 in0.0 mm
07:00 PM 44.1°F6.7°C 32.7°F0.4°C 64% 3.4 mph E5.5 kmh E 6.9 mph11.1 kmh 30.28 in1025.4 mb 0.00 in0.0 mm 0.00 in0.0 mm 0.00 in0.0 mm
07:10 PM 43.7°F6.5°C 32.3°F0.2°C 64% 3.6 mph SE5.8 kmh SE 5.4 mph8.7 kmh 30.29 in1025.7 mb 0.00 in0.0 mm 0.00 in0.0 mm 0.00 in0.0 mm
07:20 PM 43.5°F6.4°C 32.9°F0.5°C 66% 3.8 mph S6.1 kmh S 6.9 mph11.1 kmh 30.28 in1025.4 mb 0.00 in0.0 mm 0.00 in0.0 mm 0.00 in0.0 mm
07:30 PM 43.2°F6.2°C 33.0°F0.6°C 67% 2.6 mph SE4.2 kmh SE 4.5 mph7.2 kmh 30.28 in1025.4 mb 0.00 in0.0 mm 0.00 in0.0 mm 0.00 in0.0 mm
07:40 PM 43.0°F6.1°C 33.2°F0.7°C 68% 2.6 mph S4.2 kmh S 4.5 mph7.2 kmh 30.28 in1025.4 mb 0.00 in0.0 mm 0.00 in0.0 mm 0.00 in0.0 mm
07:50 PM 42.6°F5.9°C 33.2°F0.7°C 69% 1.8 mph S2.9 kmh S 4.5 mph7.2 kmh 30.28 in1025.4 mb 0.00 in0.0 mm 0.00 in0.0 mm 0.00 in0.0 mm
08:00 PM 42.4°F5.8°C 33.4°F0.8°C 70% 2.6 mph S4.2 kmh S 4.5 mph7.2 kmh 30.27 in1025.1 mb 0.00 in0.0 mm 0.00 in0.0 mm 0.00 in0.0 mm
08:10 PM 42.3°F5.7°C 33.2°F0.7°C 70% 2.7 mph SSW4.3 kmh SSW 6.0 mph9.7 kmh 30.27 in1025.1 mb 0.00 in0.0 mm 0.00 in0.0 mm 0.00 in0.0 mm
08:20 PM 42.3°F5.7°C 33.5°F0.8°C 71% 3.1 mph SW5.0 kmh SW 5.4 mph8.7 kmh 30.28 in1025.4 mb 0.00 in0.0 mm 0.00 in0.0 mm 0.00 in0.0 mm
08:30 PM 42.3°F5.7°C 33.5°F0.8°C 71% 2.6 mph S4.2 kmh S 3.8 mph6.1 kmh 30.28 in1025.4 mb 0.00 in0.0 mm 0.00 in0.0 mm 0.00 in0.0 mm
08:40 PM 42.4°F5.8°C 34.1°F1.2°C 72% 2.4 mph SSW3.9 kmh SSW 5.4 mph8.7 kmh 30.27 in1025.1 mb 0.00 in0.0 mm 0.00 in0.0 mm 0.00 in0.0 mm
08:50 PM 42.8°F6.0°C 34.4°F1.3°C 72% 4.5 mph S7.2 kmh S 8.3 mph13.4 kmh 30.27 in1025.1 mb 0.00 in0.0 mm 0.00 in0.0 mm 0.00 in0.0 mm
09:00 PM 43.0°F6.1°C 34.6°F1.4°C 72% 4.7 mph SSE7.6 kmh SSE 10.7 mph17.2 kmh 30.26 in1024.7 mb 0.00 in0.0 mm 0.00 in0.0 mm 0.00 in0.0 mm
09:10 PM 43.2°F6.2°C 34.8°F1.6°C 72% 4.7 mph SE7.6 kmh SE 8.3 mph13.4 kmh 30.27 in1025.1 mb 0.00 in0.0 mm 0.00 in0.0 mm 0.00 in0.0 mm
09:20 PM 43.3°F6.3°C 34.9°F1.6°C 72% 5.5 mph SE8.9 kmh SE 9.2 mph14.8 kmh 30.25 in1024.4 mb 0.00 in0.0 mm 0.00 in0.0 mm 0.00 in0.0 mm
09:30 PM 43.7°F6.5°C 34.9°F1.6°C 71% 8.0 mph SSW12.9 kmh SSW 15.2 mph24.5 kmh 30.25 in1024.4 mb 0.00 in0.0 mm 0.00 in0.0 mm 0.00 in0.0 mm
09:40 PM 43.9°F6.6°C 35.1°F1.7°C 71% 6.0 mph SE9.7 kmh SE 8.3 mph13.4 kmh 30.25 in1024.4 mb 0.00 in0.0 mm 0.00 in0.0 mm 0.00 in0.0 mm
09:50 PM 44.1°F6.7°C 34.9°F1.6°C 70% 4.7 mph S7.6 kmh S 8.3 mph13.4 kmh 30.25 in1024.4 mb 0.00 in0.0 mm 0.00 in0.0 mm 0.00 in0.0 mm
10:00 PM 44.2°F6.8°C 35.1°F1.7°C 70% 7.0 mph S11.3 kmh S 13.6 mph21.9 kmh 30.25 in1024.4 mb 0.00 in0.0 mm 0.00 in0.0 mm 0.00 in0.0 mm
10:10 PM 44.4°F6.9°C 35.3°F1.8°C 70% 6.5 mph S10.5 kmh S 11.4 mph18.3 kmh 30.25 in1024.4 mb 0.00 in0.0 mm 0.00 in0.0 mm 0.00 in0.0 mm
10:20 PM 44.4°F6.9°C 35.3°F1.8°C 70% 6.0 mph SE9.7 kmh SE 8.3 mph13.4 kmh 30.24 in1024.0 mb 0.00 in0.0 mm 0.00 in0.0 mm 0.00 in0.0 mm
10:30 PM 44.4°F6.9°C 35.3°F1.8°C 70% 5.3 mph SE8.5 kmh SE 7.6 mph12.2 kmh 30.24 in1024.0 mb 0.00 in0.0 mm 0.00 in0.0 mm 0.00 in0.0 mm
10:40 PM 44.6°F7.0°C 35.8°F2.1°C 71% 4.4 mph S7.1 kmh S 10.7 mph17.2 kmh 30.24 in1024.0 mb 0.00 in0.0 mm 0.00 in0.0 mm 0.00 in0.0 mm
10:50 PM 45.0°F7.2°C 36.1°F2.3°C 71% 6.4 mph SSW10.3 kmh SSW 14.5 mph23.3 kmh 30.24 in1024.0 mb 0.00 in0.0 mm 0.00 in0.0 mm 0.00 in0.0 mm
11:00 PM 45.1°F7.3°C 36.3°F2.4°C 71% 7.5 mph ESE12.1 kmh ESE 14.5 mph23.3 kmh 30.22 in1023.4 mb 0.00 in0.0 mm 0.00 in0.0 mm 0.00 in0.0 mm
11:10 PM 45.1°F7.3°C 36.3°F2.4°C 71% 7.7 mph SW12.4 kmh SW 15.2 mph24.5 kmh 30.23 in1023.7 mb 0.00 in0.0 mm 0.00 in0.0 mm 0.00 in0.0 mm
11:20 PM 45.5°F7.5°C 35.2°F1.8°C 67% 8.6 mph SSE13.8 kmh SSE 16.8 mph27.0 kmh 30.22 in1023.4 mb 0.00 in0.0 mm 0.00 in0.0 mm 0.00 in0.0 mm
11:30 PM 45.5°F7.5°C 34.8°F1.6°C 66% 7.6 mph E12.2 kmh E 11.4 mph18.3 kmh 30.21 in1023.0 mb 0.00 in0.0 mm 0.00 in0.0 mm 0.00 in0.0 mm
11:40 PM 45.7°F7.6°C 34.6°F1.4°C 65% 9.2 mph S14.8 kmh S 13.0 mph20.9 kmh 30.21 in1023.0 mb 0.00 in0.0 mm 0.00 in0.0 mm 0.00 in0.0 mm
11:50 PM 46.0°F7.8°C 34.6°F1.4°C 64% 8.6 mph SE13.8 kmh SE 14.5 mph23.3 kmh 30.20 in1022.7 mb 0.00 in0.0 mm 0.00 in0.0 mm 0.00 in0.0 mm